Time;durP1;ratioP1;P1;durP2;ratioP2;P2;SDS_P1;SDS_P2;PMS_P1;PMS_P2;Temp;Humidity;BMP_temperature;BMP_pressure;BME280_temperature;BME280_humidity;BME280_pressure;Samples;Min_cycle;Max_cycle;Signal;HPM_P1;HPM_P2
2023/10/16 00:02:49;;;;;;;5.40;3.53;;;;;;;;;;765325;181;917853;-63
2023/10/16 00:05:18;;;;;;;5.70;3.20;;;;;;;;;;770961;181;919765;-62
2023/10/16 00:07:43;;;;;;;7.32;3.67;;;;;;;;;;768413;181;919157;-62
2023/10/16 00:10:11;;;;;;;4.03;2.80;;;;;;;;;;761944;178;927215;-62
2023/10/16 00:12:33;;;;;;;5.40;3.20;;;;;;;;;;770353;181;918336;-64
2023/10/16 00:14:59;;;;;;;9.60;2.93;;;;;;;;;;760689;186;816415;-62
2023/10/16 00:17:25;;;;;;;3.70;2.97;;;;;;;;;;767438;181;923237;-61
2023/10/16 00:19:54;;;;;;;4.10;2.83;;;;;;;;;;770463;180;895745;-62
2023/10/16 00:22:18;;;;;;;4.53;3.10;;;;;;;;;;775008;180;919407;-62
2023/10/16 00:24:46;;;;;;;3.97;3.00;;;;;;;;;;765905;181;919542;-63
2023/10/16 00:27:09;;;;;;;6.70;3.60;;;;;;;;;;749217;182;919649;-62
2023/10/16 00:29:36;;;;;;;5.07;3.40;;;;;;;;;;759957;186;918709;-63
2023/10/16 00:32:07;;;;;;;8.90;4.47;;;;;;;;;;741097;187;921374;-62
2023/10/16 00:34:28;;;;;;;4.15;2.92;;;;;;;;;;773609;178;920114;-62
2023/10/16 00:36:54;;;;;;;3.80;3.00;;;;;;;;;;769988;181;918856;-62
2023/10/16 00:39:20;;;;;;;7.50;3.10;;;;;;;;;;774667;181;917729;-62
2023/10/16 00:41:49;;;;;;;7.63;4.80;;;;;;;;;;768776;181;918111;-62
2023/10/16 00:44:17;;;;;;;6.67;3.13;;;;;;;;;;766879;180;918702;-62
2023/10/16 00:46:44;;;;;;;3.77;2.93;;;;;;;;;;778651;177;918908;-62
2023/10/16 00:49:07;;;;;;;3.90;3.40;;;;;;;;;;768712;180;816669;-64
2023/10/16 00:51:33;;;;;;;4.37;2.50;;;;;;;;;;769291;180;918144;-64
2023/10/16 00:53:59;;;;;;;4.67;2.83;;;;;;;;;;763124;182;924688;-66
2023/10/16 00:56:27;;;;;;;5.47;3.00;;;;;;;;;;774804;181;918836;-64
2023/10/16 00:58:50;;;;;;;4.80;2.97;;;;;;;;;;770954;181;915601;-64
2023/10/16 01:01:18;;;;;;;3.47;2.47;;;;;;;;;;770417;178;920495;-63
2023/10/16 01:03:44;;;;;;;5.67;3.80;;;;;;;;;;780897;177;819257;-63
2023/10/16 01:06:15;;;;;;;4.57;3.40;;;;;;;;;;768033;181;817188;-63
2023/10/16 01:08:34;;;;;;;3.83;3.00;;;;;;;;;;761937;179;917523;-64
2023/10/16 01:11:00;;;;;;;5.10;3.40;;;;;;;;;;756548;186;919477;-63
2023/10/16 01:13:28;;;;;;;5.83;3.13;;;;;;;;;;769463;180;839120;-64
2023/10/16 01:15:53;;;;;;;4.67;3.40;;;;;;;;;;770672;178;858793;-65
2023/10/16 01:18:18;;;;;;;4.90;3.17;;;;;;;;;;767681;181;919195;-64
2023/10/16 01:20:48;;;;;;;6.10;3.00;;;;;;;;;;775878;178;918710;-64
2023/10/16 01:23:15;;;;;;;6.27;3.03;;;;;;;;;;747333;182;918525;-62
2023/10/16 01:25:38;;;;;;;4.43;3.30;;;;;;;;;;767922;181;1018668;-63
2023/10/16 01:28:05;;;;;;;5.83;3.57;;;;;;;;;;759839;183;938612;-63
2023/10/16 01:30:30;;;;;;;8.57;3.83;;;;;;;;;;771476;182;920681;-63
2023/10/16 01:32:56;;;;;;;5.20;3.60;;;;;;;;;;771508;178;921557;-63
2023/10/16 01:35:22;;;;;;;6.10;3.30;;;;;;;;;;759216;184;918391;-63
2023/10/16 01:37:48;;;;;;;5.23;3.77;;;;;;;;;;765387;182;919308;-64
2023/10/16 01:40:21;;;;;;;5.53;3.77;;;;;;;;;;767729;182;922748;-64
2023/10/16 01:42:41;;;;;;;7.30;3.30;;;;;;;;;;768753;180;918841;-62
2023/10/16 01:45:08;;;;;;;4.70;3.57;;;;;;;;;;760280;185;919426;-64
2023/10/16 01:47:34;;;;;;;6.00;3.67;;;;;;;;;;741353;187;919818;-64
2023/10/16 01:49:59;;;;;;;6.40;4.20;;;;;;;;;;767906;181;917522;-63
2023/10/16 01:52:25;;;;;;;6.70;3.70;;;;;;;;;;776291;181;922505;-61
2023/10/16 01:54:51;;;;;;;7.23;4.00;;;;;;;;;;752449;185;919176;-62
2023/10/16 01:57:16;;;;;;;5.33;3.47;;;;;;;;;;770955;181;919351;-63
2023/10/16 01:59:43;;;;;;;6.95;4.15;;;;;;;;;;754657;185;916023;-65
2023/10/16 02:02:09;;;;;;;5.13;3.20;;;;;;;;;;767273;180;921716;-63
2023/10/16 02:04:35;;;;;;;5.83;4.20;;;;;;;;;;754090;183;915248;-62
2023/10/16 02:07:00;;;;;;;4.70;3.03;;;;;;;;;;756417;182;921914;-62
2023/10/16 02:09:27;;;;;;;3.70;2.70;;;;;;;;;;771449;181;941368;-62
2023/10/16 02:11:52;;;;;;;4.57;3.40;;;;;;;;;;769041;181;818333;-64
2023/10/16 02:14:20;;;;;;;6.07;3.50;;;;;;;;;;772610;180;815949;-62
2023/10/16 02:16:47;;;;;;;5.97;3.57;;;;;;;;;;775980;180;920232;-63
2023/10/16 02:19:11;;;;;;;5.50;3.67;;;;;;;;;;776855;181;815648;-62
2023/10/16 02:21:36;;;;;;;4.73;3.53;;;;;;;;;;770078;181;917854;-62
2023/10/16 02:24:03;;;;;;;4.75;3.37;;;;;;;;;;773173;181;920365;-63
2023/10/16 02:26:27;;;;;;;9.60;3.63;;;;;;;;;;756584;182;1020481;-63
2023/10/16 02:28:54;;;;;;;5.20;3.43;;;;;;;;;;764809;179;1022660;-62
2023/10/16 02:31:19;;;;;;;4.57;3.40;;;;;;;;;;782295;179;691083;-61
2023/10/16 02:33:46;;;;;;;6.17;4.13;;;;;;;;;;771682;181;637215;-61
2023/10/16 02:36:12;;;;;;;5.63;4.00;;;;;;;;;;770729;179;630104;-62
2023/10/16 02:38:38;;;;;;;8.20;4.20;;;;;;;;;;776984;179;627253;-62
2023/10/16 02:41:04;;;;;;;9.45;3.90;;;;;;;;;;776345;180;618014;-63
2023/10/16 02:43:30;;;;;;;4.00;3.00;;;;;;;;;;766516;181;920604;-63
2023/10/16 02:45:56;;;;;;;6.00;3.97;;;;;;;;;;772806;181;791941;-63
2023/10/16 02:48:21;;;;;;;5.17;3.13;;;;;;;;;;756913;184;915854;-62
2023/10/16 02:50:50;;;;;;;6.13;4.07;;;;;;;;;;773574;181;640861;-62
2023/10/16 02:53:16;;;;;;;5.43;3.40;;;;;;;;;;770036;181;633017;-64
2023/10/16 02:55:43;;;;;;;6.23;3.27;;;;;;;;;;771594;182;613478;-63
2023/10/16 02:58:11;;;;;;;6.40;3.73;;;;;;;;;;762362;182;790872;-63
2023/10/16 03:00:35;;;;;;;4.03;3.30;;;;;;;;;;748316;185;921261;-64
2023/10/16 03:03:00;;;;;;;7.20;4.13;;;;;;;;;;757380;182;713221;-63
2023/10/16 03:05:28;;;;;;;5.23;3.73;;;;;;;;;;756602;185;918403;-64
2023/10/16 03:07:52;;;;;;;5.63;4.07;;;;;;;;;;768555;178;817810;-64
2023/10/16 03:10:20;;;;;;;4.78;3.60;;;;;;;;;;770339;180;910630;-64
2023/10/16 03:12:44;;;;;;;6.60;4.23;;;;;;;;;;769924;178;921610;-63
2023/10/16 03:15:17;;;;;;;6.57;4.23;;;;;;;;;;766147;181;886440;-63
2023/10/16 03:17:41;;;;;;;11.33;4.60;;;;;;;;;;766121;181;916924;-64
2023/10/16 03:20:19;;;;;;;7.73;4.43;;;;;;;;;;765629;181;920903;-63
2023/10/16 03:22:35;;;;;;;6.63;4.47;;;;;;;;;;757674;185;943575;-64
2023/10/16 03:25:03;;;;;;;8.37;4.77;;;;;;;;;;758380;182;918643;-64
2023/10/16 03:27:28;;;;;;;7.40;4.87;;;;;;;;;;767813;181;816159;-64
2023/10/16 03:29:54;;;;;;;5.30;4.13;;;;;;;;;;766487;181;922446;-63
2023/10/16 03:32:20;;;;;;;9.40;4.90;;;;;;;;;;763278;178;916036;-64
2023/10/16 03:34:46;;;;;;;4.80;4.30;;;;;;;;;;770567;181;911625;-63
2023/10/16 03:37:14;;;;;;;6.07;4.13;;;;;;;;;;766116;181;907265;-62
2023/10/16 03:39:38;;;;;;;5.87;4.30;;;;;;;;;;756040;184;919383;-63
2023/10/16 03:42:09;;;;;;;6.77;5.20;;;;;;;;;;755766;185;918806;-62
2023/10/16 03:44:30;;;;;;;10.57;4.60;;;;;;;;;;756213;182;920792;-63
2023/10/16 03:46:56;;;;;;;11.00;5.10;;;;;;;;;;758697;185;822008;-63
2023/10/16 03:49:21;;;;;;;6.97;5.43;;;;;;;;;;768229;178;918445;-64
2023/10/16 03:51:48;;;;;;;13.00;5.30;;;;;;;;;;771549;180;918604;-62
2023/10/16 03:54:14;;;;;;;6.23;4.50;;;;;;;;;;770862;180;894728;-64
2023/10/16 03:56:39;;;;;;;9.30;4.97;;;;;;;;;;767359;181;944404;-64
2023/10/16 03:59:05;;;;;;;9.23;5.68;;;;;;;;;;767618;181;919084;-63
2023/10/16 04:01:30;;;;;;;9.93;5.43;;;;;;;;;;772309;181;815662;-62
2023/10/16 04:03:56;;;;;;;8.57;5.68;;;;;;;;;;768642;180;919311;-63
2023/10/16 04:06:22;;;;;;;9.90;6.97;;;;;;;;;;768733;181;920826;-62
2023/10/16 04:08:48;;;;;;;8.40;5.70;;;;;;;;;;769786;181;914680;-64
2023/10/16 04:11:14;;;;;;;9.07;5.17;;;;;;;;;;770948;181;919268;-64
2023/10/16 04:13:47;;;;;;;6.10;4.85;;;;;;;;;;767224;179;906206;-62
2023/10/16 04:16:11;;;;;;;11.13;4.77;;;;;;;;;;762007;181;919147;-64
2023/10/16 04:18:39;;;;;;;14.67;5.50;;;;;;;;;;781735;178;773563;-63
2023/10/16 04:23:52;;;;;;;7.90;4.87;;;;;;;;;;769951;179;913012;-63
2023/10/16 04:28:40;;;;;;;7.80;4.13;;;;;;;;;;774231;181;915130;-65
2023/10/16 04:31:30;;;;;;;5.60;4.30;;;;;;;;;;750322;185;919568;-65
2023/10/16 04:33:48;;;;;;;8.13;4.73;;;;;;;;;;761703;181;911261;-65
2023/10/16 04:36:47;;;;;;;7.13;4.53;;;;;;;;;;744041;182;914583;-64
2023/10/16 04:46:20;;;;;;;12.80;6.20;;;;;;;;;;768286;180;622590;-65
2023/10/16 04:48:58;;;;;;;8.13;4.97;;;;;;;;;;773549;180;622807;-65
2023/10/16 04:51:28;;;;;;;5.20;3.93;;;;;;;;;;779450;178;629281;-66
2023/10/16 04:59:12;;;;;;;6.33;4.57;;;;;;;;;;762187;184;626258;-65
2023/10/16 05:01:54;;;;;;;6.80;4.73;;;;;;;;;;752978;182;630288;-65
2023/10/16 06:14:09;;;;;;;9.55;4.20;;;;;;;;;;768777;181;906102;-64
2023/10/16 06:15:20;;;;;;;8.37;4.20;;;;;;;;;;767607;180;938327;-63
2023/10/16 06:17:39;;;;;;;7.60;5.43;;;;;;;;;;772593;181;919897;-67
2023/10/16 06:20:09;;;;;;;9.05;5.53;;;;;;;;;;768241;181;819618;-64
2023/10/16 06:22:31;;;;;;;8.93;4.97;;;;;;;;;;766635;181;914934;-64
2023/10/16 06:24:57;;;;;;;10.30;5.40;;;;;;;;;;752287;183;932011;-64
2023/10/16 06:27:24;;;;;;;10.33;4.83;;;;;;;;;;756450;183;913555;-67
2023/10/16 06:29:50;;;;;;;7.47;4.50;;;;;;;;;;768397;181;918906;-64
2023/10/16 06:32:19;;;;;;;8.63;5.43;;;;;;;;;;769433;180;869261;-67
2023/10/16 06:34:46;;;;;;;8.90;5.13;;;;;;;;;;769674;180;900862;-68
2023/10/16 06:37:16;;;;;;;7.70;4.70;;;;;;;;;;769791;181;917119;-67
2023/10/16 06:39:37;;;;;;;9.30;5.03;;;;;;;;;;768135;180;915380;-64
2023/10/16 06:42:04;;;;;;;6.97;4.80;;;;;;;;;;768166;180;909333;-65
2023/10/16 06:44:29;;;;;;;7.27;5.40;;;;;;;;;;766522;180;919577;-65
2023/10/16 06:46:58;;;;;;;11.30;6.53;;;;;;;;;;771647;180;922847;-68
2023/10/16 06:49:26;;;;;;;11.57;5.33;;;;;;;;;;764677;180;919706;-67
2023/10/16 06:51:47;;;;;;;8.20;4.80;;;;;;;;;;772864;180;819111;-67
2023/10/16 06:54:12;;;;;;;6.77;5.70;;;;;;;;;;752870;182;1728903;-66
2023/10/16 06:56:38;;;;;;;8.10;5.40;;;;;;;;;;755016;184;916733;-65
2023/10/16 06:59:04;;;;;;;6.47;4.70;;;;;;;;;;763909;182;914486;-67
2023/10/16 07:01:34;;;;;;;7.70;5.70;;;;;;;;;;771187;177;917817;-64
2023/10/16 07:03:56;;;;;;;6.77;4.90;;;;;;;;;;770530;178;918424;-65
2023/10/16 07:06:24;;;;;;;13.73;5.30;;;;;;;;;;775060;180;922148;-66
2023/10/16 07:08:51;;;;;;;8.30;5.43;;;;;;;;;;770918;179;914663;-64
2023/10/16 07:11:18;;;;;;;7.97;4.20;;;;;;;;;;766056;180;917524;-66
2023/10/16 07:13:40;;;;;;;7.30;4.65;;;;;;;;;;757436;185;919463;-65
2023/10/16 07:16:07;;;;;;;16.90;4.47;;;;;;;;;;763275;181;918648;-67
2023/10/16 07:18:33;;;;;;;7.40;3.80;;;;;;;;;;753631;183;816697;-66
2023/10/16 07:20:59;;;;;;;11.10;4.33;;;;;;;;;;756786;182;888227;-68
2023/10/16 07:23:29;;;;;;;5.10;4.10;;;;;;;;;;759975;185;822154;-66
2023/10/16 07:25:54;;;;;;;5.07;3.53;;;;;;;;;;768086;181;946307;-67
2023/10/16 07:28:20;;;;;;;5.73;3.67;;;;;;;;;;769224;179;919742;-67
2023/10/16 07:30:45;;;;;;;4.17;3.03;;;;;;;;;;774732;180;917056;-67
2023/10/16 07:33:14;;;;;;;7.10;4.20;;;;;;;;;;761871;180;916750;-66
2023/10/16 07:35:37;;;;;;;8.57;3.70;;;;;;;;;;765591;179;947060;-67
2023/10/16 07:38:05;;;;;;;5.47;3.83;;;;;;;;;;767779;180;938377;-66
2023/10/16 07:40:29;;;;;;;7.43;3.30;;;;;;;;;;756082;182;861715;-67
2023/10/16 07:42:55;;;;;;;5.20;3.33;;;;;;;;;;764367;181;918509;-67
2023/10/16 07:45:21;;;;;;;5.10;3.30;;;;;;;;;;766012;181;920387;-66
2023/10/16 07:47:48;;;;;;;5.28;3.35;;;;;;;;;;774130;181;919362;-65
2023/10/16 07:50:13;;;;;;;4.23;2.93;;;;;;;;;;766057;181;925208;-64
2023/10/16 07:52:41;;;;;;;5.83;3.10;;;;;;;;;;766045;181;921640;-66
2023/10/16 07:55:08;;;;;;;7.70;3.20;;;;;;;;;;770774;181;917565;-66
2023/10/16 07:57:32;;;;;;;7.33;3.60;;;;;;;;;;767365;181;917101;-66
2023/10/16 07:59:57;;;;;;;7.97;3.70;;;;;;;;;;766893;179;941287;-65
2023/10/16 08:02:24;;;;;;;6.60;3.30;;;;;;;;;;764705;179;918888;-66
2023/10/16 08:04:51;;;;;;;5.40;3.40;;;;;;;;;;767861;181;919696;-66
2023/10/16 08:07:18;;;;;;;5.50;3.47;;;;;;;;;;767155;181;926792;-65
2023/10/16 08:14:56;;;;;;;7.23;3.20;;;;;;;;;;757323;184;815528;-66
2023/10/16 08:17:24;;;;;;;7.82;3.30;;;;;;;;;;769858;181;922559;-66
2023/10/16 08:19:50;;;;;;;6.47;3.10;;;;;;;;;;765864;181;918462;-65
2023/10/16 08:22:16;;;;;;;7.50;3.20;;;;;;;;;;768625;181;921671;-67
2023/10/16 08:24:43;;;;;;;7.37;2.60;;;;;;;;;;773054;181;921214;-67
2023/10/16 08:27:13;;;;;;;4.60;3.20;;;;;;;;;;769635;181;918482;-66
2023/10/16 08:29:50;;;;;;;5.37;3.03;;;;;;;;;;770544;182;809336;-67
2023/10/16 08:34:35;;;;;;;5.57;2.63;;;;;;;;;;772393;179;917267;-65
2023/10/16 08:37:03;;;;;;;7.67;3.33;;;;;;;;;;764971;178;914642;-68
2023/10/16 08:39:27;;;;;;;8.00;3.00;;;;;;;;;;766772;180;922132;-67
2023/10/16 08:41:53;;;;;;;5.27;2.80;;;;;;;;;;758300;184;919012;-67
2023/10/16 08:44:19;;;;;;;5.20;2.47;;;;;;;;;;756552;182;923400;-66
2023/10/16 08:46:45;;;;;;;5.30;2.57;;;;;;;;;;765669;181;1003113;-66
2023/10/16 08:49:11;;;;;;;5.23;2.20;;;;;;;;;;767937;178;916760;-67
2023/10/16 08:51:37;;;;;;;3.23;1.73;;;;;;;;;;768956;181;735291;-66
2023/10/16 08:54:05;;;;;;;7.23;2.43;;;;;;;;;;768700;181;816679;-66
2023/10/16 08:56:29;;;;;;;6.13;2.53;;;;;;;;;;774268;178;919658;-67
2023/10/16 08:58:55;;;;;;;6.20;2.33;;;;;;;;;;772866;179;917420;-66
2023/10/16 09:01:23;;;;;;;5.17;3.13;;;;;;;;;;764983;182;819472;-66
2023/10/16 09:03:50;;;;;;;8.20;2.40;;;;;;;;;;750915;183;918709;-67
2023/10/16 09:06:21;;;;;;;4.97;2.97;;;;;;;;;;758735;182;929221;-66
2023/10/16 09:08:45;;;;;;;5.00;2.63;;;;;;;;;;771129;178;919554;-67
2023/10/16 09:11:11;;;;;;;6.70;2.10;;;;;;;;;;755377;182;930931;-67
2023/10/16 09:13:38;;;;;;;3.28;2.10;;;;;;;;;;758232;185;918801;-65
2023/10/16 09:16:03;;;;;;;7.10;2.30;;;;;;;;;;770289;181;919036;-66
2023/10/16 09:18:31;;;;;;;4.33;2.50;;;;;;;;;;762663;182;845474;-66
2023/10/16 09:21:00;;;;;;;6.93;2.78;;;;;;;;;;765760;178;919183;-66
2023/10/16 09:23:23;;;;;;;4.20;2.43;;;;;;;;;;777569;178;716160;-67
2023/10/16 09:25:47;;;;;;;10.67;3.20;;;;;;;;;;775190;178;919504;-65
2023/10/16 09:28:16;;;;;;;6.30;2.90;;;;;;;;;;771766;180;816998;-66
2023/10/16 09:30:39;;;;;;;8.33;3.17;;;;;;;;;;776212;180;918760;-65
2023/10/16 09:33:06;;;;;;;4.60;2.93;;;;;;;;;;769701;178;918474;-67
2023/10/16 09:35:32;;;;;;;5.18;2.45;;;;;;;;;;773417;178;919016;-66
2023/10/16 09:38:02;;;;;;;6.57;2.63;;;;;;;;;;756193;182;921064;-67
2023/10/16 09:43:06;;;;;;;5.30;2.80;;;;;;;;;;756133;182;915958;-66
2023/10/16 09:45:33;;;;;;;8.63;3.30;;;;;;;;;;758031;180;919660;-66
2023/10/16 09:48:07;;;;;;;10.93;3.08;;;;;;;;;;769988;181;904441;-65
2023/10/16 09:50:25;;;;;;;10.20;3.20;;;;;;;;;;770789;181;917481;-66
2023/10/16 09:52:50;;;;;;;6.83;3.10;;;;;;;;;;769552;181;920082;-67
2023/10/16 09:55:18;;;;;;;9.00;2.83;;;;;;;;;;767041;181;1122507;-66
2023/10/16 09:57:42;;;;;;;6.20;2.30;;;;;;;;;;771293;181;919786;-66
2023/10/16 10:02:40;;;;;;;9.33;2.17;;;;;;;;;;769082;181;920608;-66
2023/10/16 10:05:09;;;;;;;9.90;2.03;;;;;;;;;;765054;181;919271;-66
2023/10/16 10:07:36;;;;;;;5.03;2.03;;;;;;;;;;754909;185;918675;-66
2023/10/16 10:11:04;;;;;;;4.80;2.67;;;;;;;;;;763727;179;915723;-65
2023/10/16 10:12:29;;;;;;;3.77;2.23;;;;;;;;;;767550;181;919111;-66
2023/10/16 10:15:01;;;;;;;6.27;2.17;;;;;;;;;;770817;181;816744;-66
2023/10/16 10:17:25;;;;;;;6.33;2.07;;;;;;;;;;761339;182;918789;-65
2023/10/16 10:19:54;;;;;;;5.40;2.07;;;;;;;;;;747988;185;918559;-66
2023/10/16 10:22:18;;;;;;;6.93;1.90;;;;;;;;;;752161;183;913101;-66
2023/10/16 10:24:45;;;;;;;9.80;3.10;;;;;;;;;;759107;185;937819;-66
2023/10/16 10:27:11;;;;;;;6.83;2.60;;;;;;;;;;757279;184;920008;-66
2023/10/16 10:29:36;;;;;;;6.00;2.47;;;;;;;;;;769015;180;917743;-66
2023/10/16 10:32:05;;;;;;;5.10;1.93;;;;;;;;;;769849;180;920221;-65
2023/10/16 10:34:31;;;;;;;4.20;2.50;;;;;;;;;;765552;180;918438;-65
2023/10/16 10:36:58;;;;;;;6.87;1.67;;;;;;;;;;751920;185;918276;-67
2023/10/16 10:39:38;;;;;;;4.67;1.60;;;;;;;;;;770739;181;919175;-65
2023/10/16 10:42:03;;;;;;;6.07;2.67;;;;;;;;;;761048;185;886294;-67
2023/10/16 10:44:30;;;;;;;3.90;1.70;;;;;;;;;;767913;179;912705;-67
2023/10/16 10:47:00;;;;;;;5.90;2.10;;;;;;;;;;768850;181;919137;-68
2023/10/16 10:49:30;;;;;;;5.50;2.20;;;;;;;;;;766366;179;887739;-67
2023/10/16 10:51:54;;;;;;;6.80;2.20;;;;;;;;;;774354;181;890534;-67
2023/10/16 10:54:23;;;;;;;4.40;2.27;;;;;;;;;;767259;181;914795;-67
2023/10/16 10:56:50;;;;;;;6.63;2.00;;;;;;;;;;766967;180;918767;-67
2023/10/16 10:59:21;;;;;;;5.30;2.07;;;;;;;;;;767847;180;917909;-67
2023/10/16 11:01:54;;;;;;;6.23;2.43;;;;;;;;;;769834;181;917624;-65
2023/10/16 11:04:17;;;;;;;4.10;2.07;;;;;;;;;;770513;181;814186;-68
2023/10/16 11:06:49;;;;;;;5.50;2.30;;;;;;;;;;765164;181;919553;-66
2023/10/16 11:09:12;;;;;;;5.50;2.17;;;;;;;;;;762946;181;917917;-67
2023/10/16 11:11:39;;;;;;;3.70;2.00;;;;;;;;;;774661;180;919144;-68
2023/10/16 11:14:05;;;;;;;5.83;2.20;;;;;;;;;;766828;181;898351;-67
2023/10/16 11:16:30;;;;;;;4.10;2.57;;;;;;;;;;767081;181;918298;-66
2023/10/16 11:18:58;;;;;;;5.20;2.63;;;;;;;;;;768888;181;918098;-67
2023/10/16 11:21:25;;;;;;;6.27;2.20;;;;;;;;;;767252;181;920801;-67
2023/10/16 11:23:52;;;;;;;6.50;2.33;;;;;;;;;;767900;180;913541;-67
2023/10/16 11:26:16;;;;;;;2.83;1.77;;;;;;;;;;763910;181;919483;-67
2023/10/16 11:28:48;;;;;;;5.20;2.00;;;;;;;;;;773076;179;919232;-68
2023/10/16 11:31:12;;;;;;;7.20;2.53;;;;;;;;;;769112;180;918474;-67
2023/10/16 11:36:09;;;;;;;7.67;2.43;;;;;;;;;;770145;181;816817;-68
2023/10/16 11:38:34;;;;;;;6.40;2.47;;;;;;;;;;761723;183;919674;-68
2023/10/16 11:41:11;;;;;;;5.00;2.03;;;;;;;;;;753107;183;919382;-68
2023/10/16 11:43:34;;;;;;;4.37;1.90;;;;;;;;;;763079;181;919462;-66
2023/10/16 11:46:04;;;;;;;3.87;2.00;;;;;;;;;;761225;183;919027;-68
2023/10/16 11:51:10;;;;;;;9.83;2.07;;;;;;;;;;752727;184;915348;-68
2023/10/16 11:53:37;;;;;;;5.53;2.50;;;;;;;;;;757764;183;815977;-69
2023/10/16 11:56:03;;;;;;;7.40;1.97;;;;;;;;;;764348;181;919282;-66
2023/10/16 11:58:31;;;;;;;8.33;3.17;;;;;;;;;;775277;180;918325;-67
2023/10/16 12:00:57;;;;;;;4.00;1.97;;;;;;;;;;769091;181;916129;-68
2023/10/16 12:03:23;;;;;;;5.93;3.60;;;;;;;;;;770237;180;820682;-67
2023/10/16 12:05:46;;;;;;;3.70;2.33;;;;;;;;;;762879;182;916927;-68
2023/10/16 12:08:12;;;;;;;6.30;2.07;;;;;;;;;;761266;184;815273;-67
2023/10/16 12:10:38;;;;;;;5.55;2.15;;;;;;;;;;765285;181;917914;-67
2023/10/16 12:13:04;;;;;;;6.00;1.80;;;;;;;;;;774991;179;637450;-67
2023/10/16 12:15:29;;;;;;;4.63;1.90;;;;;;;;;;773657;178;816054;-67
2023/10/16 12:17:55;;;;;;;6.10;2.13;;;;;;;;;;776765;178;814979;-66
2023/10/16 12:20:26;;;;;;;9.80;2.13;;;;;;;;;;770073;181;916164;-66
2023/10/16 12:22:47;;;;;;;5.07;1.73;;;;;;;;;;771283;181;915902;-67
2023/10/16 12:25:13;;;;;;;6.03;2.20;;;;;;;;;;769433;180;915759;-68
2023/10/16 12:27:39;;;;;;;8.80;3.80;;;;;;;;;;767681;181;916647;-68
2023/10/16 12:30:05;;;;;;;4.40;1.70;;;;;;;;;;774193;180;913490;-67
2023/10/16 12:32:31;;;;;;;4.30;1.90;;;;;;;;;;768033;181;919723;-67
2023/10/16 12:35:00;;;;;;;8.90;2.13;;;;;;;;;;772025;178;918077;-67
2023/10/16 12:37:22;;;;;;;3.00;1.60;;;;;;;;;;772434;180;919371;-66
2023/10/16 12:39:52;;;;;;;4.40;1.93;;;;;;;;;;761899;181;918938;-66
2023/10/16 12:42:14;;;;;;;5.07;1.90;;;;;;;;;;768640;178;915410;-67
2023/10/16 12:44:40;;;;;;;5.20;2.05;;;;;;;;;;775881;178;907679;-66
2023/10/16 12:47:06;;;;;;;9.90;2.40;;;;;;;;;;781433;177;837955;-66
2023/10/16 12:49:32;;;;;;;5.90;2.63;;;;;;;;;;762928;181;929360;-67
2023/10/16 12:51:58;;;;;;;5.43;2.13;;;;;;;;;;768863;179;914921;-66
2023/10/16 12:54:24;;;;;;;5.23;2.17;;;;;;;;;;774834;181;912973;-67
2023/10/16 12:56:49;;;;;;;5.10;2.20;;;;;;;;;;769750;181;816162;-67
2023/10/16 12:59:15;;;;;;;5.50;2.23;;;;;;;;;;769278;181;917069;-68
2023/10/16 13:01:41;;;;;;;6.00;1.70;;;;;;;;;;773815;180;906581;-66
2023/10/16 13:04:13;;;;;;;7.47;2.40;;;;;;;;;;769270;181;919384;-67
2023/10/16 13:06:33;;;;;;;4.60;2.20;;;;;;;;;;773731;178;919626;-67
2023/10/16 13:09:00;;;;;;;5.13;2.00;;;;;;;;;;776639;179;620324;-68
2023/10/16 13:11:25;;;;;;;2.70;2.07;;;;;;;;;;774166;180;810704;-66
2023/10/16 13:13:51;;;;;;;5.97;2.00;;;;;;;;;;769741;180;918529;-67
2023/10/16 13:16:24;;;;;;;5.70;2.60;;;;;;;;;;770743;181;819863;-67
2023/10/16 13:18:43;;;;;;;4.30;2.10;;;;;;;;;;771942;180;912570;-66
2023/10/16 13:21:16;;;;;;;4.93;1.73;;;;;;;;;;768973;182;788740;-67
2023/10/16 13:23:42;;;;;;;9.68;2.55;;;;;;;;;;768252;181;918618;-69
2023/10/16 13:26:08;;;;;;;7.20;2.90;;;;;;;;;;769783;181;919666;-68
2023/10/16 13:28:36;;;;;;;5.77;2.37;;;;;;;;;;766631;181;921091;-67
2023/10/16 13:31:00;;;;;;;6.73;2.00;;;;;;;;;;768046;181;916942;-66
2023/10/16 13:33:26;;;;;;;7.17;2.20;;;;;;;;;;774438;177;835241;-65
2023/10/16 13:35:54;;;;;;;5.17;2.40;;;;;;;;;;772773;180;916496;-66
2023/10/16 13:38:18;;;;;;;3.80;1.73;;;;;;;;;;766761;181;821353;-66
2023/10/16 13:40:46;;;;;;;3.77;1.97;;;;;;;;;;768259;181;920675;-66
2023/10/16 13:43:11;;;;;;;7.90;3.00;;;;;;;;;;770461;181;929978;-67
2023/10/16 13:45:37;;;;;;;6.80;2.13;;;;;;;;;;766862;181;942072;-67
2023/10/16 13:48:04;;;;;;;5.13;2.70;;;;;;;;;;768739;180;932005;-68
2023/10/16 13:50:29;;;;;;;5.03;2.43;;;;;;;;;;773078;181;915008;-66
2023/10/16 13:52:55;;;;;;;4.70;2.50;;;;;;;;;;764294;178;944044;-67
2023/10/16 13:55:21;;;;;;;5.13;2.10;;;;;;;;;;767177;181;912309;-67
2023/10/16 13:57:47;;;;;;;6.37;2.43;;;;;;;;;;766929;181;922544;-67
2023/10/16 14:00:47;;;;;;;5.07;1.87;;;;;;;;;;769143;181;920503;-68
2023/10/16 14:02:55;;;;;;;5.93;1.83;;;;;;;;;;772467;179;815344;-69
2023/10/16 14:05:21;;;;;;;7.87;2.83;;;;;;;;;;770669;178;905427;-67
2023/10/16 14:07:46;;;;;;;4.33;2.00;;;;;;;;;;770563;180;912990;-66
2023/10/16 14:10:13;;;;;;;8.03;2.00;;;;;;;;;;775058;179;918653;-67
2023/10/16 14:12:38;;;;;;;7.00;2.33;;;;;;;;;;780959;177;790398;-68
2023/10/16 14:15:05;;;;;;;5.07;2.17;;;;;;;;;;768415;181;915173;-68
2023/10/16 14:17:37;;;;;;;5.83;2.50;;;;;;;;;;770984;181;817687;-66
2023/10/16 14:19:56;;;;;;;5.07;2.30;;;;;;;;;;775840;175;640395;-66
2023/10/16 14:22:29;;;;;;;4.93;1.90;;;;;;;;;;768789;180;627018;-66
2023/10/16 14:24:50;;;;;;;5.60;1.87;;;;;;;;;;772091;180;866147;-66
2023/10/16 14:27:24;;;;;;;5.73;1.73;;;;;;;;;;770385;181;918124;-65
2023/10/16 14:29:45;;;;;;;6.00;1.70;;;;;;;;;;769717;180;918959;-65
2023/10/16 14:32:09;;;;;;;9.33;3.90;;;;;;;;;;769695;180;922783;-64
2023/10/16 14:34:33;;;;;;;6.32;2.03;;;;;;;;;;772696;180;814710;-68
2023/10/16 14:36:59;;;;;;;5.60;2.30;;;;;;;;;;766539;181;919132;-66
2023/10/16 14:39:29;;;;;;;7.43;2.03;;;;;;;;;;756348;182;918979;-68
2023/10/16 14:41:57;;;;;;;4.03;2.30;;;;;;;;;;760842;183;919305;-66
2023/10/16 14:44:20;;;;;;;6.20;2.43;;;;;;;;;;755270;185;919163;-66
2023/10/16 14:46:46;;;;;;;9.30;3.73;;;;;;;;;;745129;187;918398;-66
2023/10/16 14:49:12;;;;;;;9.10;1.97;;;;;;;;;;768233;180;917869;-67
2023/10/16 14:51:38;;;;;;;4.18;1.90;;;;;;;;;;758793;183;844907;-68
2023/10/16 14:54:04;;;;;;;6.00;2.20;;;;;;;;;;735466;187;919234;-65
2023/10/16 14:56:30;;;;;;;5.80;2.67;;;;;;;;;;768079;180;918788;-66
2023/10/16 14:58:56;;;;;;;6.33;2.33;;;;;;;;;;772092;181;917225;-66
2023/10/16 15:01:23;;;;;;;5.93;2.00;;;;;;;;;;768604;181;902704;-66
2023/10/16 15:03:47;;;;;;;5.53;2.00;;;;;;;;;;772066;181;941653;-67
2023/10/16 15:06:13;;;;;;;5.17;2.50;;;;;;;;;;774784;181;878760;-66
2023/10/16 15:08:41;;;;;;;8.07;2.00;;;;;;;;;;754565;185;919469;-66
2023/10/16 15:11:10;;;;;;;8.03;4.20;;;;;;;;;;752628;183;898345;-64
2023/10/16 15:13:31;;;;;;;6.63;2.10;;;;;;;;;;764586;181;919593;-67
2023/10/16 15:15:57;;;;;;;7.73;2.60;;;;;;;;;;772549;181;920356;-65
2023/10/16 15:18:23;;;;;;;6.40;2.40;;;;;;;;;;769276;180;928943;-65
2023/10/16 15:20:49;;;;;;;17.40;2.67;;;;;;;;;;771537;180;918482;-65
2023/10/16 15:23:15;;;;;;;7.90;2.43;;;;;;;;;;774624;181;900547;-65
2023/10/16 15:25:41;;;;;;;6.57;2.40;;;;;;;;;;770658;181;918734;-67
2023/10/16 15:28:06;;;;;;;6.43;2.50;;;;;;;;;;768905;181;1021444;-65
2023/10/16 15:30:33;;;;;;;6.17;2.60;;;;;;;;;;773753;180;910881;-65
2023/10/16 15:33:00;;;;;;;5.63;2.90;;;;;;;;;;767791;180;920601;-66
2023/10/16 15:35:24;;;;;;;10.30;3.27;;;;;;;;;;767293;181;914070;-66
2023/10/16 15:37:50;;;;;;;11.30;5.43;;;;;;;;;;773569;180;910524;-65
2023/10/16 15:40:17;;;;;;;6.10;2.77;;;;;;;;;;767587;180;921732;-65
2023/10/16 15:42:44;;;;;;;4.13;2.60;;;;;;;;;;768135;181;918146;-65
2023/10/16 15:45:09;;;;;;;11.02;3.40;;;;;;;;;;766544;180;916472;-65
2023/10/16 15:47:35;;;;;;;8.10;3.23;;;;;;;;;;777398;180;715978;-66
2023/10/16 15:50:01;;;;;;;5.70;3.40;;;;;;;;;;773828;178;916929;-65
2023/10/16 15:52:27;;;;;;;7.10;3.20;;;;;;;;;;769343;181;918609;-66
2023/10/16 15:54:53;;;;;;;8.13;2.73;;;;;;;;;;772813;179;816844;-64
2023/10/16 15:57:22;;;;;;;5.30;3.00;;;;;;;;;;764866;181;919285;-64
2023/10/16 15:59:45;;;;;;;4.10;2.90;;;;;;;;;;765466;181;918561;-64
2023/10/16 16:02:11;;;;;;;5.70;2.63;;;;;;;;;;772269;181;882637;-63
2023/10/16 16:04:39;;;;;;;6.07;3.10;;;;;;;;;;755962;183;941243;-64
2023/10/16 16:07:04;;;;;;;6.12;3.20;;;;;;;;;;770615;178;918739;-66
2023/10/16 16:09:29;;;;;;;4.00;2.40;;;;;;;;;;769577;181;918010;-65